createdAt,value
2023-01-28T00:01:17.980Z,75.29
2023-01-28T00:03:44.460Z,75.23
2023-01-28T00:06:15.217Z,74.87
2023-01-28T00:08:42.081Z,75.19
2023-01-28T00:11:11.331Z,74.89
2023-01-28T00:13:38.205Z,75.00
2023-01-28T00:16:08.640Z,75.03
2023-01-28T00:18:36.062Z,74.83
2023-01-28T00:21:07.125Z,74.64
2023-01-28T00:23:36.327Z,73.24
2023-01-28T00:26:05.807Z,72.47
2023-01-28T00:28:32.451Z,73.59
2023-01-28T00:30:59.041Z,72.54
2023-01-28T00:33:29.313Z,72.92
2023-01-28T00:36:00.270Z,72.86
2023-01-28T00:38:28.724Z,72.97
2023-01-28T00:40:55.473Z,73.14
2023-01-28T00:43:23.165Z,73.76
2023-01-28T00:45:50.417Z,73.62
2023-01-28T00:48:17.020Z,73.55
2023-01-28T00:50:45.553Z,73.18
2023-01-28T00:53:12.057Z,73.43
2023-01-28T00:55:39.016Z,73.59
2023-01-28T00:58:05.567Z,73.31
2023-01-28T01:00:32.006Z,73.66
2023-01-28T01:02:58.428Z,73.95
2023-01-28T01:05:24.844Z,74.16
2023-01-28T01:07:51.421Z,73.47
2023-01-28T01:10:20.200Z,74.09
2023-01-28T01:12:47.803Z,73.58
2023-01-28T01:15:15.907Z,72.52
2023-01-28T01:17:46.243Z,72.77
2023-01-28T01:20:19.875Z,72.56
2023-01-28T01:22:46.439Z,72.86
2023-01-28T01:25:15.405Z,72.31
2023-01-28T01:27:43.200Z,72.38
2023-01-28T01:30:10.741Z,72.76
2023-01-28T01:32:38.544Z,72.59
2023-01-28T01:35:07.310Z,70.93
2023-01-28T01:37:35.428Z,71.52
2023-01-28T01:40:04.627Z,70.64
2023-01-28T01:42:32.909Z,69.63
2023-01-28T01:45:07.738Z,70.61
2023-01-28T01:48:01.030Z,70.62
2023-01-28T01:50:27.353Z,69.51
2023-01-28T01:52:59.646Z,70.18
2023-01-28T01:55:30.691Z,70.78
2023-01-28T01:58:02.540Z,70.61
2023-01-28T02:00:28.981Z,70.79
2023-01-28T02:02:56.862Z,71.43
2023-01-28T02:05:23.476Z,71.98
2023-01-28T02:07:55.206Z,72.06
2023-01-28T02:10:23.149Z,72.46
2023-01-28T02:12:56.121Z,73.39
2023-01-28T02:15:27.088Z,73.31
2023-01-28T02:17:53.643Z,74.11
2023-01-28T02:20:32.199Z,74.52
2023-01-28T02:23:27.508Z,74.60
2023-01-28T02:26:15.696Z,74.71
2023-01-28T02:29:02.907Z,74.61
2023-01-28T02:32:23.655Z,75.06
2023-01-28T02:35:00.951Z,74.25
2023-01-28T02:38:04.148Z,74.43
2023-01-28T02:40:54.831Z,74.74
2023-01-28T02:43:40.410Z,74.64
2023-01-28T02:46:53.400Z,75.12
2023-01-28T02:49:31.141Z,74.72
2023-01-28T02:52:42.005Z,75.02
2023-01-28T02:55:29.361Z,75.49
2023-01-28T02:58:17.562Z,75.25
2023-01-28T03:01:08.743Z,75.65
2023-01-28T03:03:50.328Z,75.47
2023-01-28T03:06:22.230Z,74.27
2023-01-28T03:09:12.586Z,74.30
2023-01-28T03:12:05.884Z,74.79
2023-01-28T03:14:54.309Z,74.61
2023-01-28T03:17:45.060Z,74.10
2023-01-28T03:20:31.777Z,72.74
2023-01-28T03:23:22.037Z,73.11
2023-01-28T03:26:12.756Z,73.37
2023-01-28T03:28:58.796Z,73.80
2023-01-28T03:31:44.771Z,74.04
2023-01-28T03:34:32.476Z,74.11
2023-01-28T03:36:59.745Z,73.67
2023-01-28T03:39:45.736Z,73.19
2023-01-28T03:42:14.758Z,73.58
2023-01-28T03:45:01.819Z,73.61
2023-01-28T03:47:30.951Z,73.99
2023-01-28T03:50:01.930Z,73.92
2023-01-28T03:52:33.241Z,73.39
2023-01-28T03:55:16.377Z,73.90
2023-01-28T03:57:44.957Z,73.66
2023-01-28T04:00:13.072Z,73.68
2023-01-28T04:02:42.179Z,74.00
2023-01-28T04:05:12.981Z,72.72
2023-01-28T04:07:44.962Z,72.98
2023-01-28T04:10:19.783Z,73.02
2023-01-28T04:12:54.482Z,72.44
2023-01-28T04:15:24.197Z,72.21
2023-01-28T04:17:50.845Z,71.74
2023-01-28T04:20:25.609Z,72.24
2023-01-28T04:22:52.124Z,72.29
2023-01-28T04:25:21.343Z,72.44
2023-01-28T04:27:48.264Z,73.05
2023-01-28T04:30:19.014Z,73.16
2023-01-28T04:32:55.986Z,72.62
2023-01-28T04:35:41.781Z,72.40
2023-01-28T04:38:20.700Z,72.91
2023-01-28T04:41:13.354Z,73.53
2023-01-28T04:43:39.767Z,73.63
2023-01-28T04:46:27.183Z,73.04
2023-01-28T04:49:09.531Z,73.13
2023-01-28T04:51:42.076Z,72.77
2023-01-28T04:54:26.976Z,73.06
2023-01-28T04:56:57.159Z,73.14
2023-01-28T04:59:24.402Z,73.47
2023-01-28T05:01:51.734Z,73.64
2023-01-28T05:04:19.326Z,73.29
2023-01-28T05:06:46.467Z,73.38
2023-01-28T05:09:23.878Z,72.87
2023-01-28T05:11:51.625Z,71.80
2023-01-28T05:14:18.236Z,72.24
2023-01-28T05:16:50.419Z,72.45
2023-01-28T05:19:18.041Z,72.40
2023-01-28T05:21:46.423Z,71.89
2023-01-28T05:24:31.249Z,71.26
2023-01-28T05:26:57.855Z,71.56
2023-01-28T05:29:24.504Z,71.77
2023-01-28T05:31:50.970Z,72.11
2023-01-28T05:34:17.515Z,72.19
2023-01-28T05:36:44.538Z,72.11
2023-01-28T05:39:27.106Z,72.60
2023-01-28T05:41:53.620Z,72.34
2023-01-28T05:44:20.186Z,72.78
2023-01-28T05:46:58.654Z,73.26
2023-01-28T05:49:44.398Z,73.37
2023-01-28T05:52:30.791Z,73.01
2023-01-28T05:54:57.535Z,73.40
2023-01-28T05:57:25.385Z,72.95
2023-01-28T05:59:52.005Z,73.07
2023-01-28T06:02:19.720Z,73.37
2023-01-28T06:04:46.502Z,73.40
2023-01-28T06:07:13.375Z,73.25
2023-01-28T06:09:42.640Z,73.18
2023-01-28T06:12:09.821Z,73.04
2023-01-28T06:14:49.656Z,73.31
2023-01-28T06:17:43.911Z,73.01
2023-01-28T06:20:22.638Z,73.30
2023-01-28T06:22:52.016Z,73.33
2023-01-28T06:25:19.694Z,73.64
2023-01-28T06:27:47.147Z,73.73
2023-01-28T06:30:14.084Z,73.87
2023-01-28T06:32:40.805Z,73.93
2023-01-28T06:35:08.099Z,73.39
2023-01-28T06:37:34.653Z,73.14
2023-01-28T06:40:01.077Z,71.81
2023-01-28T06:42:30.972Z,70.16
2023-01-28T06:44:57.360Z,69.99
2023-01-28T06:47:23.835Z,69.30
2023-01-28T06:49:50.406Z,69.23
2023-01-28T06:52:16.822Z,69.44
2023-01-28T06:54:44.130Z,69.75
2023-01-28T06:57:11.034Z,69.95
2023-01-28T06:59:37.507Z,69.97
2023-01-28T07:02:03.924Z,69.89
2023-01-28T07:04:31.783Z,69.89
2023-01-28T07:06:58.340Z,69.89
2023-01-28T07:09:24.711Z,69.76
2023-01-28T07:11:51.242Z,69.43
2023-01-28T07:14:17.866Z,69.50
2023-01-28T07:16:44.278Z,69.81
2023-01-28T07:19:10.967Z,69.82
2023-01-28T07:21:37.535Z,69.75
2023-01-28T07:24:05.293Z,69.93
2023-01-28T07:26:32.047Z,70.24
2023-01-28T07:28:58.534Z,70.01
2023-01-28T07:31:24.987Z,69.92
2023-01-28T07:33:51.699Z,70.18
2023-01-28T07:36:18.100Z,70.62
2023-01-28T07:38:44.592Z,70.94
2023-01-28T07:41:11.252Z,70.25
2023-01-28T07:43:37.664Z,69.21
2023-01-28T07:46:04.901Z,69.35
2023-01-28T07:48:31.424Z,70.28
2023-01-28T07:51:03.299Z,70.66
2023-01-28T07:53:29.716Z,70.13
2023-01-28T07:56:01.215Z,70.33
2023-01-28T07:58:27.706Z,70.54
2023-01-28T08:00:59.039Z,69.35
2023-01-28T08:03:26.851Z,69.67
2023-01-28T08:05:55.447Z,69.60
2023-01-28T08:08:23.441Z,69.74
2023-01-28T08:10:50.690Z,69.52
2023-01-28T08:13:18.526Z,69.55
2023-01-28T08:15:46.108Z,70.19
2023-01-28T08:18:14.249Z,69.56
2023-01-28T08:20:41.427Z,69.49
2023-01-28T08:23:19.251Z,70.04
2023-01-28T08:25:46.246Z,69.88
2023-01-28T08:28:13.697Z,69.74
2023-01-28T08:30:40.535Z,69.70
2023-01-28T08:33:08.577Z,69.13
2023-01-28T08:35:35.746Z,68.93
2023-01-28T08:38:03.477Z,69.15
2023-01-28T08:40:30.108Z,69.14
2023-01-28T08:42:57.116Z,68.72
2023-01-28T08:45:28.054Z,69.50
2023-01-28T08:47:59.922Z,68.82
2023-01-28T08:50:32.411Z,68.76
2023-01-28T08:53:01.551Z,68.15
2023-01-28T08:55:30.108Z,68.98
2023-01-28T08:57:58.533Z,68.74
2023-01-28T09:00:25.380Z,68.51
2023-01-28T09:02:53.064Z,68.93
2023-01-28T09:05:21.005Z,69.03
2023-01-28T09:07:47.923Z,69.27
2023-01-28T09:10:16.528Z,69.84
2023-01-28T09:12:43.914Z,69.80
2023-01-28T09:15:10.906Z,69.80
2023-01-28T09:17:37.559Z,69.09
2023-01-28T09:20:05.039Z,68.66
2023-01-28T09:22:32.745Z,69.34
2023-01-28T09:24:59.162Z,68.72
2023-01-28T09:27:25.609Z,68.42
2023-01-28T09:29:52.078Z,68.79
2023-01-28T09:32:18.556Z,69.07
2023-01-28T09:34:44.962Z,68.56
2023-01-28T09:37:12.016Z,69.13
2023-01-28T09:39:38.811Z,68.79
2023-01-28T09:42:17.084Z,69.04
2023-01-28T09:44:59.337Z,69.60
2023-01-28T09:47:35.289Z,68.90
2023-01-28T09:50:06.785Z,67.77
2023-01-28T09:52:37.309Z,67.71
2023-01-28T09:55:16.977Z,67.45
2023-01-28T09:58:01.892Z,68.17
2023-01-28T10:00:54.984Z,67.83
2023-01-28T10:03:37.669Z,68.28
2023-01-28T10:06:26.323Z,67.85
2023-01-28T10:09:14.389Z,67.23
2023-01-28T10:11:56.490Z,66.71
2023-01-28T10:14:36.283Z,66.96
2023-01-28T10:17:12.233Z,68.66
2023-01-28T10:19:47.044Z,67.52
2023-01-28T10:22:25.626Z,68.03
2023-01-28T10:24:58.349Z,67.47
2023-01-28T10:27:29.711Z,67.68
2023-01-28T10:29:58.675Z,67.56
2023-01-28T10:32:37.020Z,67.39
2023-01-28T10:35:04.400Z,67.25
2023-01-28T10:37:34.701Z,67.08
2023-01-28T10:40:03.104Z,67.23
2023-01-28T10:42:32.192Z,66.97
2023-01-28T10:45:22.917Z,67.26
2023-01-28T10:48:03.353Z,67.10
2023-01-28T10:50:31.285Z,67.87
2023-01-28T10:53:02.294Z,67.94
2023-01-28T10:55:45.870Z,67.40
2023-01-28T10:58:22.026Z,68.71
2023-01-28T11:00:54.687Z,69.25
2023-01-28T11:03:23.163Z,69.08
2023-01-28T11:05:52.334Z,67.88
2023-01-28T11:08:19.845Z,67.46
2023-01-28T11:10:47.591Z,67.47
2023-01-28T11:13:20.421Z,68.56
2023-01-28T11:15:58.118Z,68.61
2023-01-28T11:18:28.402Z,67.61
2023-01-28T11:21:01.008Z,67.74
2023-01-28T11:23:31.433Z,67.94
2023-01-28T11:26:05.755Z,68.24
2023-01-28T11:28:32.881Z,67.82
2023-01-28T11:31:03.313Z,68.26
2023-01-28T11:33:44.335Z,66.70
2023-01-28T11:36:16.652Z,67.43
2023-01-28T11:39:00.346Z,67.28
2023-01-28T11:41:34.135Z,66.85
2023-01-28T11:44:14.929Z,67.18
2023-01-28T11:46:58.407Z,67.42
2023-01-28T11:49:35.848Z,66.50
2023-01-28T11:52:11.126Z,66.29
2023-01-28T11:55:22.275Z,65.33
2023-01-28T11:58:03.459Z,65.70
2023-01-28T12:00:48.465Z,66.18
2023-01-28T12:03:43.062Z,66.11
2023-01-28T12:06:23.893Z,65.88
2023-01-28T12:09:12.192Z,66.48
2023-01-28T12:12:12.117Z,65.87
2023-01-28T12:14:57.942Z,65.37
2023-01-28T12:17:42.718Z,64.61
2023-01-28T12:20:28.157Z,64.78
2023-01-28T12:22:58.395Z,64.99
2023-01-28T12:25:36.984Z,65.65
2023-01-28T12:28:30.401Z,65.05
2023-01-28T12:31:17.992Z,65.70
2023-01-28T12:34:03.736Z,64.72
2023-01-28T12:36:51.950Z,63.55
2023-01-28T12:39:42.022Z,63.22
2023-01-28T12:42:23.224Z,62.52
2023-01-28T12:44:56.516Z,63.32
2023-01-28T12:47:31.472Z,63.32
2023-01-28T12:50:03.863Z,63.71
2023-01-28T12:52:35.256Z,63.96
2023-01-28T12:55:11.887Z,64.50
2023-01-28T12:57:38.713Z,65.30
2023-01-28T13:00:28.063Z,64.53
2023-01-28T13:03:19.344Z,65.94
2023-01-28T13:05:50.897Z,66.24
2023-01-28T13:08:23.915Z,66.91
2023-01-28T13:10:52.441Z,66.53
2023-01-28T13:13:34.524Z,66.33
2023-01-28T13:16:02.689Z,66.53
2023-01-28T13:18:44.398Z,66.06
2023-01-28T13:21:23.790Z,66.00
2023-01-28T13:24:03.058Z,65.51
2023-01-28T13:26:51.246Z,65.19
2023-01-28T13:29:24.904Z,65.28
2023-01-28T13:31:56.964Z,65.06
2023-01-28T13:34:44.164Z,64.79
2023-01-28T13:37:37.696Z,64.65
2023-01-28T13:40:23.675Z,64.92
2023-01-28T13:43:05.156Z,65.35
2023-01-28T13:45:33.407Z,64.30
2023-01-28T13:47:59.827Z,64.38
2023-01-28T13:50:37.217Z,64.97
2023-01-28T13:53:25.327Z,64.18
2023-01-28T13:55:57.437Z,64.02
2023-01-28T13:58:42.564Z,64.29
2023-01-28T14:01:29.131Z,63.53
2023-01-28T14:04:04.542Z,64.50
2023-01-28T14:06:56.091Z,64.48
2023-01-28T14:09:48.749Z,65.30
2023-01-28T14:12:42.814Z,65.91
2023-01-28T14:15:13.309Z,64.96
2023-01-28T14:17:48.327Z,64.27
2023-01-28T14:20:22.565Z,65.12
2023-01-28T14:22:50.757Z,64.91
2023-01-28T14:25:32.969Z,64.63
2023-01-28T14:28:02.669Z,65.42
2023-01-28T14:30:50.781Z,66.52
2023-01-28T14:33:17.764Z,65.83
2023-01-28T14:35:47.130Z,66.24
2023-01-28T14:38:20.885Z,66.25
2023-01-28T14:40:53.427Z,66.78
2023-01-28T14:43:24.976Z,66.97
2023-01-28T14:46:05.188Z,66.27
2023-01-28T14:48:46.578Z,66.97
2023-01-28T14:51:46.844Z,67.04
2023-01-28T14:54:28.195Z,67.01
2023-01-28T14:57:10.143Z,67.30
2023-01-28T14:59:44.825Z,67.14
2023-01-28T15:02:44.854Z,67.76
2023-01-28T15:05:26.462Z,68.03
2023-01-28T15:07:53.741Z,68.09
2023-01-28T15:10:53.269Z,68.37
2023-01-28T15:13:29.305Z,68.91
2023-01-28T15:16:00.509Z,69.17
2023-01-28T15:18:35.365Z,69.60
2023-01-28T15:21:02.705Z,70.10
2023-01-28T15:23:36.225Z,70.42
2023-01-28T15:26:25.504Z,70.95
2023-01-28T15:28:54.164Z,71.78
2023-01-28T15:31:22.375Z,71.83
2023-01-28T15:34:18.689Z,71.90
2023-01-28T15:36:47.638Z,72.27
2023-01-28T15:39:16.681Z,72.87
2023-01-28T15:41:49.924Z,73.04
2023-01-28T15:44:29.260Z,73.47
2023-01-28T15:46:58.086Z,74.12
2023-01-28T15:49:31.187Z,73.71
2023-01-28T15:51:57.843Z,73.71
2023-01-28T15:54:25.756Z,74.13
2023-01-28T15:56:52.580Z,74.16
2023-01-28T15:59:26.729Z,74.28
2023-01-28T16:02:19.849Z,74.66
2023-01-28T16:05:00.329Z,75.18
2023-01-28T16:07:30.960Z,75.45
2023-01-28T16:09:59.531Z,75.87
2023-01-28T16:12:26.933Z,75.89
2023-01-28T16:15:04.052Z,76.47
2023-01-28T16:17:37.455Z,77.10
2023-01-28T16:20:08.112Z,76.94
2023-01-28T16:22:38.035Z,76.91
2023-01-28T16:25:21.124Z,77.37
2023-01-28T16:27:47.783Z,77.11
2023-01-28T16:30:15.323Z,77.49
2023-01-28T16:32:44.693Z,77.99
2023-01-28T16:35:20.294Z,77.84
2023-01-28T16:37:48.505Z,78.16
2023-01-28T16:40:23.455Z,77.78
2023-01-28T16:42:53.468Z,77.80
2023-01-28T16:45:25.025Z,77.49
2023-01-28T16:47:52.607Z,77.67
2023-01-28T16:50:21.896Z,77.36
2023-01-28T16:52:51.238Z,77.40
2023-01-28T16:55:20.148Z,77.88
2023-01-28T16:57:48.811Z,78.26
2023-01-28T17:00:26.930Z,78.41
2023-01-28T17:02:54.607Z,78.09
2023-01-28T17:05:23.275Z,78.08
2023-01-28T17:07:50.070Z,78.36
2023-01-28T17:10:17.421Z,78.46
2023-01-28T17:12:44.682Z,79.16
2023-01-28T17:15:11.575Z,78.82
2023-01-28T17:17:37.998Z,79.30
2023-01-28T17:20:06.120Z,79.18
2023-01-28T17:22:32.536Z,79.22
2023-01-28T17:24:58.978Z,79.45
2023-01-28T17:27:25.424Z,79.13
2023-01-28T17:29:53.416Z,79.37
2023-01-28T17:32:19.930Z,79.77
2023-01-28T17:34:47.829Z,79.67
2023-01-28T17:37:14.314Z,79.72
2023-01-28T17:39:41.716Z,80.24
2023-01-28T17:42:08.188Z,80.19
2023-01-28T17:44:34.611Z,80.21
2023-01-28T17:47:01.067Z,79.82
2023-01-28T17:49:27.698Z,80.11
2023-01-28T17:51:54.119Z,80.40
2023-01-28T17:54:23.456Z,80.39
2023-01-28T17:56:50.014Z,80.47
2023-01-28T17:59:17.536Z,80.35
2023-01-28T18:01:44.801Z,80.99
2023-01-28T18:04:12.985Z,81.11
2023-01-28T18:06:39.447Z,81.42
2023-01-28T18:09:06.988Z,81.25
2023-01-28T18:11:33.591Z,81.29
2023-01-28T18:14:00.050Z,81.71
2023-01-28T18:16:26.625Z,81.59
2023-01-28T18:18:53.224Z,82.12
2023-01-28T18:21:39.935Z,82.02
2023-01-28T18:24:17.303Z,81.98
2023-01-28T18:26:43.854Z,82.01
2023-01-28T18:29:16.367Z,82.47
2023-01-28T18:31:42.837Z,82.75
2023-01-28T18:34:09.515Z,82.01
2023-01-28T18:36:35.891Z,82.35
2023-01-28T18:39:02.320Z,82.37
2023-01-28T18:41:29.095Z,81.74
2023-01-28T18:43:55.509Z,81.94
2023-01-28T18:46:21.900Z,81.85
2023-01-28T18:48:48.328Z,82.10
2023-01-28T18:51:28.934Z,81.90
2023-01-28T18:54:02.075Z,82.01
2023-01-28T18:56:29.747Z,81.91
2023-01-28T18:59:01.139Z,82.62
2023-01-28T19:01:28.833Z,82.25
2023-01-28T19:03:56.932Z,82.78
2023-01-28T19:06:24.841Z,82.92
2023-01-28T19:08:54.010Z,82.94
2023-01-28T19:11:21.823Z,82.51
2023-01-28T19:13:48.241Z,82.74
2023-01-28T19:16:14.980Z,83.05
2023-01-28T19:18:41.447Z,82.91
2023-01-28T19:21:07.899Z,83.62
2023-01-28T19:23:48.878Z,83.21
2023-01-28T19:26:21.210Z,83.24
2023-01-28T19:28:51.712Z,83.58
2023-01-28T19:31:23.259Z,83.24
2023-01-28T19:33:54.525Z,83.75
2023-01-28T19:36:21.925Z,84.21
2023-01-28T19:38:48.373Z,83.97
2023-01-28T19:41:16.948Z,83.74
2023-01-28T19:43:44.144Z,84.05
2023-01-28T19:46:14.041Z,84.44
2023-01-28T19:48:40.510Z,84.35
2023-01-28T19:51:08.502Z,83.25
2023-01-28T19:53:36.544Z,83.21
2023-01-28T19:56:04.786Z,82.92
2023-01-28T19:58:39.220Z,82.94
2023-01-28T20:01:09.697Z,82.09
2023-01-28T20:03:36.851Z,82.43
2023-01-28T20:06:05.812Z,83.13
2023-01-28T20:08:32.392Z,82.71
2023-01-28T20:11:07.060Z,83.22
2023-01-28T20:13:34.334Z,82.92
2023-01-28T20:16:08.360Z,83.48
2023-01-28T20:18:35.527Z,83.44
2023-01-28T20:21:04.918Z,83.29
2023-01-28T20:23:31.601Z,82.68
2023-01-28T20:26:01.242Z,82.86
2023-01-28T20:28:28.192Z,83.26
2023-01-28T20:30:55.519Z,83.30
2023-01-28T20:33:22.724Z,83.03
2023-01-28T20:35:49.175Z,83.98
2023-01-28T20:38:15.630Z,84.71
2023-01-28T20:40:46.022Z,83.71
2023-01-28T20:43:12.661Z,84.13
2023-01-28T20:45:39.052Z,84.22
2023-01-28T20:48:06.374Z,84.40
2023-01-28T20:50:34.340Z,83.60
2023-01-28T20:53:00.771Z,84.14
2023-01-28T20:55:28.557Z,84.01
2023-01-28T20:57:55.197Z,84.13
2023-01-28T21:00:22.227Z,84.41
2023-01-28T21:02:48.789Z,84.49
2023-01-28T21:05:15.303Z,83.66
2023-01-28T21:07:41.710Z,83.80
2023-01-28T21:10:08.843Z,83.55
2023-01-28T21:12:35.353Z,83.64
2023-01-28T21:15:02.659Z,83.63
2023-01-28T21:17:31.581Z,83.64
2023-01-28T21:19:58.628Z,83.32
2023-01-28T21:22:25.291Z,83.69
2023-01-28T21:24:51.711Z,83.76
2023-01-28T21:27:18.118Z,83.88
2023-01-28T21:29:44.559Z,83.23
2023-01-28T21:32:11.331Z,83.10
2023-01-28T21:34:38.048Z,83.04
2023-01-28T21:37:04.464Z,83.03
2023-01-28T21:39:30.940Z,83.06
2023-01-28T21:41:57.354Z,82.64
2023-01-28T21:44:23.934Z,83.10
2023-01-28T21:46:50.445Z,83.09
2023-01-28T21:49:16.875Z,83.24
2023-01-28T21:51:46.300Z,83.32
2023-01-28T21:54:14.415Z,82.55
2023-01-28T21:56:45.109Z,83.11
2023-01-28T21:59:28.030Z,83.38
2023-01-28T22:01:55.461Z,83.41
2023-01-28T22:04:21.975Z,82.91
2023-01-28T22:06:49.242Z,83.02
2023-01-28T22:09:15.749Z,83.74
2023-01-28T22:11:43.868Z,82.76
2023-01-28T22:14:11.335Z,82.27
2023-01-28T22:16:37.990Z,82.19
2023-01-28T22:19:04.855Z,82.84
2023-01-28T22:21:31.375Z,82.63
2023-01-28T22:23:58.158Z,82.48
2023-01-28T22:26:24.627Z,82.68
2023-01-28T22:28:51.341Z,82.85
2023-01-28T22:31:17.937Z,82.51
2023-01-28T22:33:45.722Z,82.42
2023-01-28T22:36:15.026Z,82.89
2023-01-28T22:38:43.867Z,83.04
2023-01-28T22:41:13.524Z,82.45
2023-01-28T22:43:41.750Z,82.17
2023-01-28T22:46:09.683Z,82.90
2023-01-28T22:48:37.666Z,81.76
2023-01-28T22:51:10.574Z,81.91
2023-01-28T22:53:37.048Z,81.75
2023-01-28T22:56:03.701Z,81.68
2023-01-28T22:58:31.578Z,81.72
2023-01-28T23:00:58.461Z,81.76
2023-01-28T23:03:24.980Z,82.21
2023-01-28T23:05:51.792Z,82.67
2023-01-28T23:08:43.953Z,82.37
2023-01-28T23:11:14.891Z,82.65
2023-01-28T23:14:01.519Z,82.30
2023-01-28T23:16:50.165Z,83.50
2023-01-28T23:19:35.719Z,83.14
2023-01-28T23:22:21.686Z,83.00
2023-01-28T23:24:48.121Z,83.41
2023-01-28T23:27:14.571Z,83.17
2023-01-28T23:29:41.695Z,84.02
2023-01-28T23:32:09.844Z,83.94
2023-01-28T23:34:38.667Z,83.63
2023-01-28T23:37:09.500Z,83.73
2023-01-28T23:39:36.305Z,83.33
2023-01-28T23:42:15.290Z,83.16
2023-01-28T23:44:42.069Z,83.70
2023-01-28T23:47:08.938Z,83.55
2023-01-28T23:49:35.663Z,83.40
2023-01-28T23:52:03.922Z,84.00
2023-01-28T23:54:30.785Z,84.24
2023-01-28T23:56:57.431Z,83.89
2023-01-28T23:59:24.699Z,84.01
